TimeEDT,TemperatureF,Dew PointF,Humidity,Sea Level PressureIn,VisibilityMPH,Wind Direction,Wind SpeedMPH,Gust SpeedMPH,PrecipitationIn,Events,Conditions,WindDirDegrees,DateUTC
12:51 AM,64.9,53.1,65,29.96,10.0,ENE,10.4,-,N/A,,Overcast,60,2013-10-08 04:51:00
1:03 AM,64.4,53.6,68,29.97,10.0,NE,8.1,-,N/A,,Overcast,50,2013-10-08 05:03:00
1:11 AM,64.4,53.6,68,29.97,10.0,ENE,9.2,-,N/A,,Overcast,60,2013-10-08 05:11:00
1:51 AM,64.0,54.0,70,29.96,10.0,NE,9.2,-,N/A,,Overcast,50,2013-10-08 05:51:00
2:51 AM,63.0,54.0,72,29.96,10.0,ENE,8.1,-,N/A,,Overcast,60,2013-10-08 06:51:00
3:02 AM,62.6,53.6,72,29.97,10.0,ENE,6.9,-,N/A,,Overcast,60,2013-10-08 07:02:00
3:33 AM,62.6,53.6,72,29.97,10.0,NE,5.8,-,N/A,,Mostly Cloudy,50,2013-10-08 07:33:00
3:51 AM,62.1,53.1,72,29.94,10.0,NE,6.9,-,N/A,,Partly Cloudy,40,2013-10-08 07:51:00
4:51 AM,60.1,52.0,75,29.97,10.0,ENE,5.8,-,N/A,,Clear,60,2013-10-08 08:51:00
5:51 AM,60.1,51.1,72,30.00,10.0,ENE,10.4,-,N/A,,Clear,60,2013-10-08 09:51:00
6:51 AM,60.1,50.0,69,30.02,10.0,NE,11.5,-,N/A,,Mostly Cloudy,50,2013-10-08 10:51:00
7:51 AM,61.0,48.9,64,30.04,10.0,ENE,11.5,20.7,N/A,,Overcast,60,2013-10-08 11:51:00
8:51 AM,61.0,48.0,62,30.07,10.0,ENE,10.4,-,N/A,,Overcast,60,2013-10-08 12:51:00
9:49 AM,62.6,48.2,59,30.09,10.0,ENE,12.7,23.0,N/A,,Overcast,60,2013-10-08 13:49:00
9:51 AM,62.1,48.0,60,30.09,10.0,ENE,15.0,23.0,N/A,,Overcast,70,2013-10-08 13:51:00
10:51 AM,62.1,48.9,62,30.10,10.0,ENE,18.4,24.2,N/A,,Overcast,60,2013-10-08 14:51:00
11:51 AM,63.0,48.9,60,30.11,10.0,ENE,17.3,24.2,N/A,,Overcast,60,2013-10-08 15:51:00
12:51 PM,66.9,51.1,57,30.11,10.0,ENE,12.7,20.7,N/A,,Overcast,60,2013-10-08 16:51:00
1:51 PM,68.0,52.0,56,30.09,10.0,ENE,12.7,-,N/A,,Overcast,70,2013-10-08 17:51:00
2:51 PM,71.1,54.0,55,30.08,10.0,ENE,11.5,-,N/A,,Overcast,70,2013-10-08 18:51:00
3:51 PM,69.1,54.0,58,30.09,10.0,ENE,12.7,-,N/A,,Overcast,60,2013-10-08 19:51:00
4:51 PM,68.0,54.0,61,30.09,10.0,East,10.4,18.4,N/A,,Overcast,80,2013-10-08 20:51:00
5:51 PM,66.9,54.0,63,30.10,10.0,East,12.7,17.3,N/A,,Overcast,80,2013-10-08 21:51:00
6:51 PM,64.9,53.1,65,30.12,10.0,East,10.4,-,N/A,,Overcast,80,2013-10-08 22:51:00
7:51 PM,64.0,53.1,67,30.13,10.0,ENE,8.1,-,N/A,,Overcast,70,2013-10-08 23:51:00
8:51 PM,63.0,53.1,70,30.14,10.0,East,5.8,-,N/A,,Overcast,90,2013-10-09 00:51:00
9:51 PM,61.0,55.0,81,30.16,10.0,ESE,6.9,-,N/A,,Overcast,110,2013-10-09 01:51:00
10:51 PM,61.0,54.0,78,30.17,10.0,ENE,6.9,-,N/A,,Overcast,70,2013-10-09 02:51:00
11:51 PM,61.0,53.1,75,30.17,10.0,NE,4.6,-,N/A,,Overcast,50,2013-10-09 03:51:00